Time;durP1;ratioP1;P1;durP2;ratioP2;P2;SDS_P1;SDS_P2;PMS_P1;PMS_P2;Temp;Humidity;BMP_temperature;BMP_pressure;BME280_temperature;BME280_humidity;BME280_pressure;Samples;Min_cycle;Max_cycle;Signal;HPM_P1;HPM_P2
2022/03/15 06:54:22;;;;;;;;;;;19.30;96.10;;;;;;5773114;22;10329760;-69
2022/03/15 06:56:49;;;;;;;;;;;19.40;96.70;;;;;;6226699;22;19927;-70
2022/03/15 06:59:15;;;;;;;;;;;19.90;95.80;;;;;;6245217;23;19910;-67
2022/03/15 07:01:41;;;;;;;;;;;18.90;96.70;;;;;;6245036;23;19904;-71
2022/03/15 07:04:07;;;;;;;;;;;17.80;97.70;;;;;;6245001;23;19958;-69
2022/03/15 07:06:34;;;;;;;;;;;17.20;98.90;;;;;;6245198;23;20002;-67
2022/03/15 07:09:00;;;;;;;;;;;15.70;99.90;;;;;;6244441;23;19927;-68
2022/03/15 07:11:26;;;;;;;;;;;15.10;99.90;;;;;;6217843;23;20332;-68
2022/03/15 07:13:51;;;;;;;;;;;15.40;99.90;;;;;;6245251;23;19950;-68
2022/03/15 07:16:18;;;;;;;;;;;15.70;99.90;;;;;;6245214;23;20268;-68
2022/03/15 07:18:44;;;;;;;;;;;16.00;99.90;;;;;;6218590;23;19911;-71
2022/03/15 07:21:10;;;;;;;;;;;15.90;99.90;;;;;;6246225;23;19923;-71
2022/03/15 07:23:35;;;;;;;;;;;15.10;99.90;;;;;;6245775;23;19904;-71
2022/03/15 07:26:01;;;;;;;;;;;14.30;99.90;;;;;;6245465;23;20082;-71
2022/03/15 07:28:27;;;;;;;;;;;13.50;99.90;;;;;;6245886;23;20054;-71
2022/03/15 07:30:53;;;;;;;;;;;13.20;99.90;;;;;;6218555;23;19904;-71
2022/03/15 07:33:18;;;;;;;;;;;13.40;99.90;;;;;;6218689;23;20343;-69
2022/03/15 07:35:46;;;;;;;;;;;13.40;99.90;;;;;;6246010;23;19990;-71
2022/03/15 07:38:17;;;;;;;;;;;13.40;99.90;;;;;;6245355;23;19903;-72
2022/03/15 07:40:43;;;;;;;;;;;13.40;99.90;;;;;;6218074;23;19916;-69
2022/03/15 07:43:10;;;;;;;;;;;13.60;99.90;;;;;;6245150;23;19915;-71
2022/03/15 07:45:36;;;;;;;;;;;13.40;99.90;;;;;;6245512;23;20002;-72
2022/03/15 07:48:11;;;;;;;;;;;13.20;99.90;;;;;;6245262;23;19911;-72
2022/03/15 07:50:36;;;;;;;;;;;13.30;99.90;;;;;;6245605;23;19973;-70
2022/03/15 07:53:02;;;;;;;;;;;13.20;99.90;;;;;;6245364;23;19911;-70
2022/03/15 07:55:28;;;;;;;;;;;13.10;99.90;;;;;;6245883;23;19903;-70
2022/03/15 07:57:54;;;;;;;;;;;13.00;99.90;;;;;;6243719;23;19915;-71
2022/03/15 08:00:20;;;;;;;;;;;12.80;99.90;;;;;;6245033;23;19908;-72
2022/03/15 08:02:46;;;;;;;;;;;12.90;99.90;;;;;;6244868;23;19925;-71
2022/03/15 08:05:11;;;;;;;;;;;13.00;99.90;;;;;;6244973;23;19918;-70
2022/03/15 08:07:37;;;;;;;;;;;13.20;99.90;;;;;;6245270;23;19904;-72
2022/03/15 08:10:04;;;;;;;;;;;13.20;99.90;;;;;;6244818;23;20216;-73
2022/03/15 08:12:32;;;;;;;;;;;13.40;99.90;;;;;;6245061;23;19911;-72
2022/03/15 08:14:58;;;;;;;;;;;13.60;99.90;;;;;;6245438;23;19903;-71
2022/03/15 08:17:24;;;;;;;;;;;13.70;99.90;;;;;;6244599;23;19914;-70
2022/03/15 08:19:49;;;;;;;;;;;13.70;99.90;;;;;;6218071;23;19935;-72
2022/03/15 08:22:15;;;;;;;;;;;13.90;99.90;;;;;;6245732;23;19944;-70
2022/03/15 08:24:41;;;;;;;;;;;14.10;99.90;;;;;;6245325;23;19908;-72
2022/03/15 08:27:07;;;;;;;;;;;14.10;99.90;;;;;;6245060;23;19911;-70
2022/03/15 08:29:33;;;;;;;;;;;14.20;99.90;;;;;;6245242;23;20232;-73
2022/03/15 08:31:59;;;;;;;;;;;14.40;99.90;;;;;;6245569;23;20311;-70
2022/03/15 08:34:25;;;;;;;;;;;14.60;99.90;;;;;;6217733;23;19903;-71
2022/03/15 08:36:53;;;;;;;;;;;14.50;99.90;;;;;;6245225;23;20267;-70
2022/03/15 08:39:22;;;;;;;;;;;14.50;99.90;;;;;;6245072;23;20002;-72
2022/03/15 08:41:51;;;;;;;;;;;14.70;99.90;;;;;;6245650;23;19942;-72
2022/03/15 08:44:18;;;;;;;;;;;14.60;99.90;;;;;;6245245;23;19959;-70
2022/03/15 08:46:47;;;;;;;;;;;14.60;99.90;;;;;;6245377;23;19911;-70
2022/03/15 08:49:20;;;;;;;;;;;14.90;99.90;;;;;;6244649;23;19922;-72
2022/03/15 08:51:46;;;;;;;;;;;15.10;99.90;;;;;;6244333;23;19903;-71
2022/03/15 08:54:12;;;;;;;;;;;14.80;99.90;;;;;;6244892;23;19904;-73
2022/03/15 08:59:25;;;;;;;;;;;14.90;99.90;;;;;;6244470;23;20321;-71
2022/03/15 09:01:51;;;;;;;;;;;15.00;99.90;;;;;;6216944;23;19904;-71
2022/03/15 09:04:17;;;;;;;;;;;15.00;99.90;;;;;;6244440;23;19907;-71
2022/03/15 09:06:43;;;;;;;;;;;15.30;99.90;;;;;;6217549;23;19949;-72
2022/03/15 09:09:18;;;;;;;;;;;15.30;99.90;;;;;;6217411;23;20066;-70
2022/03/15 09:11:45;;;;;;;;;;;15.30;99.90;;;;;;6244753;23;19903;-71
2022/03/15 09:14:11;;;;;;;;;;;15.30;99.90;;;;;;6244551;23;19908;-71
2022/03/15 09:16:37;;;;;;;;;;;15.00;99.90;;;;;;6246205;23;19907;-70
2022/03/15 09:19:03;;;;;;;;;;;14.90;99.90;;;;;;6220050;23;19942;-71
2022/03/15 09:21:29;;;;;;;;;;;14.90;99.90;;;;;;6246980;23;19904;-72
2022/03/15 09:23:57;;;;;;;;;;;15.00;99.90;;;;;;6219175;23;19907;-71
2022/03/15 09:26:24;;;;;;;;;;;15.20;99.90;;;;;;6247053;23;19911;-71
2022/03/15 09:28:50;;;;;;;;;;;15.70;99.90;;;;;;6247609;23;20350;-71
2022/03/15 09:31:17;;;;;;;;;;;16.10;99.90;;;;;;6247013;23;19907;-71
2022/03/15 09:33:43;;;;;;;;;;;16.30;99.90;;;;;;6247404;23;19903;-71
2022/03/15 09:36:09;;;;;;;;;;;16.40;99.90;;;;;;6247181;23;19938;-71
2022/03/15 09:38:35;;;;;;;;;;;16.00;99.90;;;;;;6219775;23;19904;-71
2022/03/15 09:41:03;;;;;;;;;;;15.90;99.90;;;;;;6246359;23;19915;-71
2022/03/15 09:43:34;;;;;;;;;;;15.80;99.90;;;;;;6246608;23;20280;-71
2022/03/15 09:46:02;;;;;;;;;;;15.80;99.90;;;;;;6246488;23;19998;-71
2022/03/15 09:48:29;;;;;;;;;;;15.50;99.90;;;;;;6245858;23;19904;-70
2022/03/15 09:50:54;;;;;;;;;;;15.50;99.90;;;;;;6245274;23;19911;-71
2022/03/15 09:53:20;;;;;;;;;;;15.30;99.90;;;;;;6245410;23;20312;-70
2022/03/15 09:55:46;;;;;;;;;;;15.30;99.90;;;;;;6245663;23;19957;-73
2022/03/15 09:58:13;;;;;;;;;;;15.30;99.90;;;;;;6213811;23;19992;-74
2022/03/15 10:00:41;;;;;;;;;;;15.30;99.90;;;;;;6216140;23;20264;-72
2022/03/15 10:03:07;;;;;;;;;;;15.50;99.90;;;;;;6214428;23;19987;-68
2022/03/15 10:05:34;;;;;;;;;;;15.40;99.90;;;;;;6215977;23;20155;-72
2022/03/15 10:08:00;;;;;;;;;;;15.60;99.90;;;;;;6216194;23;19915;-71
2022/03/15 10:10:27;;;;;;;;;;;15.50;99.90;;;;;;6216089;23;19911;-71
2022/03/15 10:12:53;;;;;;;;;;;15.60;99.90;;;;;;6215706;23;19904;-72
2022/03/15 10:15:21;;;;;;;;;;;15.70;99.90;;;;;;6213733;23;19911;-71
2022/03/15 10:17:48;;;;;;;;;;;15.70;99.90;;;;;;6215588;23;20212;-70
2022/03/15 10:20:17;;;;;;;;;;;15.60;99.90;;;;;;6215501;23;20263;-72
2022/03/15 10:22:50;;;;;;;;;;;15.50;99.90;;;;;;6213519;23;19952;-71
2022/03/15 10:25:16;;;;;;;;;;;15.20;99.90;;;;;;6215301;23;20324;-72
2022/03/15 10:27:42;;;;;;;;;;;15.10;99.90;;;;;;6214933;23;20343;-71
2022/03/15 10:30:09;;;;;;;;;;;15.20;99.90;;;;;;6216384;23;19939;-71
2022/03/15 10:32:35;;;;;;;;;;;15.50;99.90;;;;;;6216080;23;19904;-72
2022/03/15 10:35:05;;;;;;;;;;;15.60;99.90;;;;;;6216437;23;20015;-71
2022/03/15 10:37:31;;;;;;;;;;;15.40;99.90;;;;;;6215416;23;20272;-70
2022/03/15 10:39:57;;;;;;;;;;;15.10;99.90;;;;;;6213678;23;20333;-70
2022/03/15 10:42:23;;;;;;;;;;;15.20;99.90;;;;;;6215490;23;19981;-69
2022/03/15 10:44:49;;;;;;;;;;;15.40;99.90;;;;;;6215528;23;19904;-69
2022/03/15 10:47:17;;;;;;;;;;;15.50;99.90;;;;;;6215792;23;19935;-69
2022/03/15 10:49:50;;;;;;;;;;;15.40;99.90;;;;;;6215612;23;19916;-69
2022/03/15 10:52:29;;;;;;;;;;;15.70;99.90;;;;;;6215492;23;19904;-70
2022/03/15 10:54:55;;;;;;;;;;;16.10;99.90;;;;;;6215332;23;20309;-69
2022/03/15 10:57:21;;;;;;;;;;;16.30;99.90;;;;;;6229021;23;19916;-70
2022/03/15 10:59:46;;;;;;;;;;;16.50;99.90;;;;;;6245918;23;19907;-69
2022/03/15 11:02:12;;;;;;;;;;;16.80;99.90;;;;;;6245590;23;19904;-71
2022/03/15 11:04:47;;;;;;;;;;;16.80;99.90;;;;;;6244931;23;19904;-70
2022/03/15 11:07:14;;;;;;;;;;;16.50;99.90;;;;;;6245033;23;19986;-70
2022/03/15 11:09:40;;;;;;;;;;;16.70;99.90;;;;;;6245221;23;19904;-70
2022/03/15 11:12:07;;;;;;;;;;;16.60;99.90;;;;;;6245363;23;19978;-72
2022/03/15 11:14:48;;;;;;;;;;;16.70;99.90;;;;;;6218631;23;19904;-73
2022/03/15 11:17:13;;;;;;;;;;;17.00;99.90;;;;;;6245363;23;19904;-71
2022/03/15 11:19:43;;;;;;;;;;;17.00;99.90;;;;;;6244367;23;19904;-71
2022/03/15 11:22:09;;;;;;;;;;;17.00;99.90;;;;;;6217789;23;19950;-71
2022/03/15 11:24:38;;;;;;;;;;;16.90;99.90;;;;;;6245029;23;19987;-72
2022/03/15 11:27:06;;;;;;;;;;;16.80;99.90;;;;;;6245003;23;19912;-72
2022/03/15 11:29:32;;;;;;;;;;;16.70;99.90;;;;;;6245704;23;20300;-71
2022/03/15 11:31:59;;;;;;;;;;;16.80;99.90;;;;;;6245337;23;19930;-70
2022/03/15 11:34:25;;;;;;;;;;;16.50;99.90;;;;;;6245154;23;19904;-71
2022/03/15 11:36:52;;;;;;;;;;;16.70;99.90;;;;;;6244906;23;19942;-71
2022/03/15 11:39:18;;;;;;;;;;;16.80;99.90;;;;;;6245089;23;19921;-71
2022/03/15 11:41:45;;;;;;;;;;;16.80;99.90;;;;;;6244230;23;19904;-72
2022/03/15 11:44:19;;;;;;;;;;;16.70;99.90;;;;;;6243858;23;19903;-71
2022/03/15 11:46:52;;;;;;;;;;;16.80;99.90;;;;;;6243574;23;20065;-72
2022/03/15 11:49:24;;;;;;;;;;;17.10;99.90;;;;;;6243345;23;19907;-71
2022/03/15 11:51:58;;;;;;;;;;;16.80;99.90;;;;;;6243756;23;19923;-72
2022/03/15 11:54:44;;;;;;;;;;;16.70;99.90;;;;;;6244807;23;19904;-72
2022/03/15 11:57:22;;;;;;;;;;;16.40;99.90;;;;;;6245230;23;19915;-72
2022/03/15 11:59:48;;;;;;;;;;;16.60;99.90;;;;;;6244973;23;19911;-72
2022/03/15 12:02:26;;;;;;;;;;;16.80;99.90;;;;;;6242946;23;20327;-72
2022/03/15 12:04:52;;;;;;;;;;;16.90;99.90;;;;;;6216905;23;20377;-71
2022/03/15 12:07:29;;;;;;;;;;;17.00;99.90;;;;;;6244626;23;19904;-71
2022/03/15 12:09:59;;;;;;;;;;;16.70;99.90;;;;;;6244362;23;20228;-71
2022/03/15 12:12:29;;;;;;;;;;;16.60;99.90;;;;;;6243492;23;19904;-71
2022/03/15 12:14:55;;;;;;;;;;;16.70;99.90;;;;;;6243002;23;20045;-71
2022/03/15 12:17:21;;;;;;;;;;;16.60;99.90;;;;;;6244158;23;19954;-71
2022/03/15 12:19:48;;;;;;;;;;;16.50;98.90;;;;;;6245536;23;20256;-71
2022/03/15 12:22:21;;;;;;;;;;;16.40;98.50;;;;;;6245235;23;19904;-70
2022/03/15 12:24:47;;;;;;;;;;;16.50;98.40;;;;;;6244377;23;19908;-66
2022/03/15 12:27:18;;;;;;;;;;;16.70;97.80;;;;;;6244725;23;19904;-72
2022/03/15 12:29:54;;;;;;;;;;;16.70;97.80;;;;;;6244889;23;20334;-71
2022/03/15 12:32:22;;;;;;;;;;;16.50;97.80;;;;;;6245334;23;19908;-71
2022/03/15 12:34:49;;;;;;;;;;;16.90;97.80;;;;;;6244936;23;19994;-71
2022/03/15 12:37:16;;;;;;;;;;;17.20;98.10;;;;;;6245039;23;19903;-72
2022/03/15 12:39:52;;;;;;;;;;;17.60;97.20;;;;;;6245775;23;19904;-71
2022/03/15 12:42:21;;;;;;;;;;;17.70;97.20;;;;;;6245729;23;19915;-70
2022/03/15 12:44:48;;;;;;;;;;;17.90;96.60;;;;;;6218183;23;19954;-72
2022/03/15 12:47:18;;;;;;;;;;;17.70;95.70;;;;;;6245102;23;19911;-70
2022/03/15 12:50:04;;;;;;;;;;;17.30;96.80;;;;;;6245100;23;19934;-70
2022/03/15 12:52:36;;;;;;;;;;;17.40;97.40;;;;;;6246767;23;19927;-71
2022/03/15 12:55:02;;;;;;;;;;;17.70;98.10;;;;;;6247460;23;19904;-71
2022/03/15 12:57:29;;;;;;;;;;;17.30;97.80;;;;;;6246447;23;19938;-72
2022/03/15 12:59:55;;;;;;;;;;;17.50;99.30;;;;;;6246337;23;19999;-71
2022/03/15 13:02:21;;;;;;;;;;;17.60;97.80;;;;;;6247243;23;20283;-71
2022/03/15 13:04:47;;;;;;;;;;;17.40;97.10;;;;;;6248095;23;19912;-72
2022/03/15 13:07:15;;;;;;;;;;;17.00;97.70;;;;;;6246969;23;19918;-72
2022/03/15 13:09:41;;;;;;;;;;;17.10;98.20;;;;;;6247776;23;19904;-72
2022/03/15 13:12:16;;;;;;;;;;;17.50;98.20;;;;;;6247286;23;19910;-70
2022/03/15 13:14:42;;;;;;;;;;;17.70;97.80;;;;;;6247870;23;19923;-72
2022/03/15 13:17:08;;;;;;;;;;;17.50;96.60;;;;;;6247634;23;19986;-72
2022/03/15 13:19:35;;;;;;;;;;;17.40;96.50;;;;;;6247879;23;20011;-72
2022/03/15 13:22:04;;;;;;;;;;;17.20;97.70;;;;;;6220815;23;19904;-72
2022/03/15 13:24:35;;;;;;;;;;;17.00;97.00;;;;;;6220507;23;19954;-72
2022/03/15 13:27:02;;;;;;;;;;;16.70;97.10;;;;;;6247500;23;19911;-72
2022/03/15 13:29:30;;;;;;;;;;;16.80;98.00;;;;;;6247503;23;19914;-72
2022/03/15 13:31:56;;;;;;;;;;;16.40;97.40;;;;;;6247412;23;19949;-72
2022/03/15 13:34:23;;;;;;;;;;;16.40;97.00;;;;;;6248083;23;20313;-72
2022/03/15 13:36:49;;;;;;;;;;;16.20;98.10;;;;;;6247408;23;19969;-72
2022/03/15 13:39:17;;;;;;;;;;;16.30;98.20;;;;;;6247525;23;19958;-73
2022/03/15 13:41:47;;;;;;;;;;;16.50;99.90;;;;;;6247316;23;19903;-72
2022/03/15 13:44:19;;;;;;;;;;;16.50;98.40;;;;;;6248016;23;19910;-72
2022/03/15 13:46:46;;;;;;;;;;;16.20;98.90;;;;;;6247468;23;19918;-72
2022/03/15 13:49:18;;;;;;;;;;;16.30;98.40;;;;;;6247035;23;19904;-73
2022/03/15 13:51:44;;;;;;;;;;;16.20;97.60;;;;;;6246887;23;19903;-72
2022/03/15 13:54:10;;;;;;;;;;;16.30;97.30;;;;;;6247454;23;19910;-72
2022/03/15 13:56:40;;;;;;;;;;;16.30;97.30;;;;;;6246918;23;20324;-73
2022/03/15 13:59:08;;;;;;;;;;;16.30;96.60;;;;;;6247119;23;19986;-73
2022/03/15 14:01:34;;;;;;;;;;;16.30;97.30;;;;;;6246154;23;19935;-69
2022/03/15 14:04:03;;;;;;;;;;;16.30;97.20;;;;;;6246732;23;20399;-72
2022/03/15 14:06:35;;;;;;;;;;;16.20;97.00;;;;;;6246541;23;19912;-72
2022/03/15 14:09:01;;;;;;;;;;;16.20;96.30;;;;;;6247575;23;19903;-72
2022/03/15 14:11:35;;;;;;;;;;;16.40;96.90;;;;;;6247080;23;19919;-71
2022/03/15 14:14:11;;;;;;;;;;;16.10;97.70;;;;;;6247507;23;20312;-73
2022/03/15 14:16:42;;;;;;;;;;;16.10;98.20;;;;;;6247023;23;19991;-70
2022/03/15 14:19:09;;;;;;;;;;;16.30;98.10;;;;;;6246974;23;19939;-71
2022/03/15 14:21:39;;;;;;;;;;;16.20;97.70;;;;;;6247978;23;19907;-71
2022/03/15 14:24:06;;;;;;;;;;;16.20;97.90;;;;;;6247191;23;19957;-72
2022/03/15 14:26:32;;;;;;;;;;;16.20;97.70;;;;;;6247071;23;19918;-70
2022/03/15 14:29:00;;;;;;;;;;;16.20;97.20;;;;;;6247091;23;19911;-71
2022/03/15 14:31:27;;;;;;;;;;;16.30;97.30;;;;;;6246911;23;19904;-72
2022/03/15 14:34:00;;;;;;;;;;;16.30;96.80;;;;;;6246790;23;19903;-71
2022/03/15 14:36:34;;;;;;;;;;;16.40;95.80;;;;;;6246759;23;19904;-71
2022/03/15 14:39:18;;;;;;;;;;;16.60;96.30;;;;;;6246870;23;19903;-71
2022/03/15 14:41:46;;;;;;;;;;;16.70;96.40;;;;;;6247397;23;19905;-66
2022/03/15 14:44:12;;;;;;;;;;;16.70;96.50;;;;;;6246437;23;19903;-72
2022/03/15 14:46:39;;;;;;;;;;;16.60;97.10;;;;;;6245424;23;19956;-71
2022/03/15 14:49:07;;;;;;;;;;;16.60;96.00;;;;;;6218729;23;19907;-72
2022/03/15 14:51:34;;;;;;;;;;;16.60;96.00;;;;;;6244379;23;19903;-71
2022/03/15 14:54:02;;;;;;;;;;;16.40;96.00;;;;;;6245925;23;19907;-71
2022/03/15 14:56:28;;;;;;;;;;;16.60;95.80;;;;;;6245887;23;19964;-67
2022/03/15 14:58:55;;;;;;;;;;;16.50;95.70;;;;;;6246047;23;19982;-71
2022/03/15 15:01:22;;;;;;;;;;;16.40;95.20;;;;;;6218993;23;19978;-71
2022/03/15 15:03:51;;;;;;;;;;;16.30;94.00;;;;;;6245753;23;19908;-70
2022/03/15 15:06:17;;;;;;;;;;;16.20;93.40;;;;;;6246055;23;19911;-71
2022/03/15 15:08:46;;;;;;;;;;;16.10;95.60;;;;;;6219049;23;19950;-70
2022/03/15 15:11:12;;;;;;;;;;;16.10;93.90;;;;;;6246456;23;19904;-70
2022/03/15 15:13:41;;;;;;;;;;;16.10;94.50;;;;;;6245888;23;19915;-70
2022/03/15 15:16:06;;;;;;;;;;;16.10;94.90;;;;;;6246723;23;19903;-70
2022/03/15 15:18:38;;;;;;;;;;;16.10;94.50;;;;;;6219171;23;19911;-71
2022/03/15 15:21:04;;;;;;;;;;;16.00;95.50;;;;;;6246259;23;19931;-71
2022/03/15 15:23:30;;;;;;;;;;;15.90;95.70;;;;;;6246352;23;19965;-73
2022/03/15 15:25:57;;;;;;;;;;;15.90;96.70;;;;;;6245629;23;19912;-72
2022/03/15 15:28:25;;;;;;;;;;;15.90;95.60;;;;;;6246123;23;19903;-71
2022/03/15 15:30:53;;;;;;;;;;;15.90;96.50;;;;;;6219278;23;19990;-72
2022/03/15 15:33:21;;;;;;;;;;;15.70;95.30;;;;;;6245968;23;19942;-71
2022/03/15 15:35:47;;;;;;;;;;;15.70;95.30;;;;;;6245639;23;19926;-72
2022/03/15 15:38:14;;;;;;;;;;;15.70;95.70;;;;;;6218658;23;20312;-72
2022/03/15 15:40:42;;;;;;;;;;;15.70;95.70;;;;;;6245743;23;19904;-73
2022/03/15 15:43:10;;;;;;;;;;;15.50;96.00;;;;;;6246206;23;19969;-72
2022/03/15 15:45:36;;;;;;;;;;;15.40;96.80;;;;;;6218409;23;19943;-73
2022/03/15 15:48:03;;;;;;;;;;;15.60;97.10;;;;;;6246070;23;19907;-72
2022/03/15 15:50:31;;;;;;;;;;;15.40;96.90;;;;;;6218188;23;19908;-73
2022/03/15 15:52:57;;;;;;;;;;;15.50;97.50;;;;;;6244997;23;19923;-70
2022/03/15 15:55:23;;;;;;;;;;;15.60;97.40;;;;;;6244981;23;19982;-71
2022/03/15 15:57:54;;;;;;;;;;;15.60;97.10;;;;;;6244875;23;20236;-71
2022/03/15 16:00:20;;;;;;;;;;;15.60;98.80;;;;;;6244666;23;19991;-70
2022/03/15 16:02:46;;;;;;;;;;;15.50;96.80;;;;;;6244347;23;19957;-71
2022/03/15 16:05:20;;;;;;;;;;;15.50;97.40;;;;;;6244617;23;19937;-71
2022/03/15 16:07:50;;;;;;;;;;;15.60;99.90;;;;;;6245010;23;19904;-72
2022/03/15 16:10:16;;;;;;;;;;;15.50;98.40;;;;;;6217523;23;19903;-71
2022/03/15 16:12:43;;;;;;;;;;;15.40;96.60;;;;;;6244658;23;20005;-70
2022/03/15 16:15:10;;;;;;;;;;;15.30;97.00;;;;;;6244104;23;19904;-71
2022/03/15 16:17:37;;;;;;;;;;;15.20;97.50;;;;;;6216978;23;19958;-71
2022/03/15 16:20:03;;;;;;;;;;;15.00;97.90;;;;;;6244832;23;19904;-71
2022/03/15 16:22:30;;;;;;;;;;;14.90;99.90;;;;;;6244979;23;19911;-70
2022/03/15 16:24:56;;;;;;;;;;;14.80;98.80;;;;;;6245652;23;20208;-69
2022/03/15 16:27:21;;;;;;;;;;;14.80;98.90;;;;;;6244560;23;19911;-69
2022/03/15 16:29:48;;;;;;;;;;;14.70;99.60;;;;;;6244695;23;19904;-69
2022/03/15 16:32:26;;;;;;;;;;;14.60;98.40;;;;;;6245471;23;19904;-72
2022/03/15 16:34:52;;;;;;;;;;;14.60;98.40;;;;;;6244602;23;20343;-70
2022/03/15 16:37:19;;;;;;;;;;;14.50;99.20;;;;;;6244720;23;19953;-68
2022/03/15 16:39:48;;;;;;;;;;;14.50;99.90;;;;;;6244757;23;19904;-70
2022/03/15 16:42:15;;;;;;;;;;;14.50;99.90;;;;;;6244597;23;19914;-70
2022/03/15 16:44:41;;;;;;;;;;;14.50;99.90;;;;;;6244841;23;19939;-71
2022/03/15 16:47:07;;;;;;;;;;;14.40;99.90;;;;;;6245514;23;19966;-71
2022/03/15 16:49:33;;;;;;;;;;;14.30;99.90;;;;;;6244485;23;19904;-71
2022/03/15 16:51:59;;;;;;;;;;;14.20;99.90;;;;;;6245174;23;19927;-71
2022/03/15 16:54:24;;;;;;;;;;;14.00;99.90;;;;;;6244969;23;19904;-68
2022/03/15 16:56:51;;;;;;;;;;;14.00;99.90;;;;;;6244333;23;19923;-69
2022/03/15 16:59:17;;;;;;;;;;;13.90;99.90;;;;;;6245037;23;19939;-70
2022/03/15 17:01:44;;;;;;;;;;;13.90;99.90;;;;;;6244409;23;19958;-70
2022/03/15 17:07:12;;;;;;;;;;;13.80;99.90;;;;;;6152344;23;19924;-71
2022/03/15 17:09:37;;;;;;;;;;;13.70;99.90;;;;;;6225334;23;19934;-70
2022/03/15 17:12:06;;;;;;;;;;;13.70;99.90;;;;;;6245032;23;19931;-71
2022/03/15 17:14:35;;;;;;;;;;;13.60;99.90;;;;;;6244891;23;19905;-70
2022/03/15 17:17:04;;;;;;;;;;;13.50;99.90;;;;;;6244804;23;19949;-71
2022/03/15 17:19:31;;;;;;;;;;;13.30;99.90;;;;;;6245258;23;19957;-69
2022/03/15 17:21:58;;;;;;;;;;;13.30;99.90;;;;;;6245154;23;19950;-65
2022/03/15 17:24:28;;;;;;;;;;;13.30;99.90;;;;;;6219379;23;19994;-65
2022/03/15 17:26:55;;;;;;;;;;;13.20;99.90;;;;;;6245691;23;19911;-65
2022/03/15 17:29:21;;;;;;;;;;;13.30;99.90;;;;;;6245341;23;19935;-70
2022/03/15 17:31:50;;;;;;;;;;;13.20;99.90;;;;;;6218350;23;19910;-71
2022/03/15 17:34:16;;;;;;;;;;;13.00;99.90;;;;;;6218194;23;19994;-72
2022/03/15 17:36:44;;;;;;;;;;;13.00;99.90;;;;;;6246513;23;19978;-71
2022/03/15 17:39:11;;;;;;;;;;;12.90;99.90;;;;;;6246986;23;20214;-70
2022/03/15 17:41:45;;;;;;;;;;;12.90;99.90;;;;;;6246902;23;20335;-72
2022/03/15 17:44:12;;;;;;;;;;;12.90;99.90;;;;;;6246959;23;19987;-72
2022/03/15 17:46:38;;;;;;;;;;;12.90;99.90;;;;;;6246607;23;19919;-71
2022/03/15 17:49:08;;;;;;;;;;;12.80;99.90;;;;;;6247670;23;19927;-71
2022/03/15 17:51:34;;;;;;;;;;;12.70;99.90;;;;;;6247689;23;19926;-71
2022/03/15 17:54:04;;;;;;;;;;;12.70;99.90;;;;;;6246933;23;19904;-70
2022/03/15 17:56:33;;;;;;;;;;;12.70;99.90;;;;;;6247123;23;19904;-72
2022/03/15 17:59:02;;;;;;;;;;;12.70;99.90;;;;;;6247459;23;19907;-70
2022/03/15 18:01:30;;;;;;;;;;;12.60;99.90;;;;;;6246753;23;19908;-71
2022/03/15 18:03:57;;;;;;;;;;;12.70;99.90;;;;;;6246839;23;19904;-71
2022/03/15 18:06:27;;;;;;;;;;;12.60;99.90;;;;;;6246580;23;19983;-72
2022/03/15 18:08:56;;;;;;;;;;;12.60;99.90;;;;;;6246293;23;20389;-69
2022/03/15 18:11:23;;;;;;;;;;;12.60;99.90;;;;;;6246413;23;19903;-71
2022/03/15 18:13:50;;;;;;;;;;;12.50;99.90;;;;;;6246153;23;19915;-70
2022/03/15 18:16:18;;;;;;;;;;;12.50;99.90;;;;;;6219336;23;20380;-69
2022/03/15 18:18:46;;;;;;;;;;;12.60;99.90;;;;;;6247146;23;19903;-70
2022/03/15 18:21:15;;;;;;;;;;;12.50;99.90;;;;;;6246291;23;20033;-69
2022/03/15 18:23:41;;;;;;;;;;;12.50;99.90;;;;;;6245710;23;20331;-70
2022/03/15 18:26:12;;;;;;;;;;;12.40;99.90;;;;;;6244108;23;19983;-70
2022/03/15 18:28:39;;;;;;;;;;;12.30;99.90;;;;;;6246550;23;19992;-70
2022/03/15 18:31:05;;;;;;;;;;;12.30;99.90;;;;;;6246436;23;19903;-71
2022/03/15 18:33:31;;;;;;;;;;;12.30;99.90;;;;;;6246614;23;19910;-71
2022/03/15 18:35:57;;;;;;;;;;;12.20;99.90;;;;;;6246591;23;19935;-69
2022/03/15 18:38:24;;;;;;;;;;;12.30;99.90;;;;;;6246282;23;19982;-70
2022/03/15 18:40:50;;;;;;;;;;;12.30;99.90;;;;;;6246266;23;20197;-70
2022/03/15 18:43:17;;;;;;;;;;;12.30;99.90;;;;;;6246706;23;20309;-69
2022/03/15 18:45:47;;;;;;;;;;;12.20;99.90;;;;;;6246027;23;19955;-70
2022/03/15 18:48:17;;;;;;;;;;;12.10;99.90;;;;;;6245843;23;19904;-69
2022/03/15 18:50:45;;;;;;;;;;;12.20;99.90;;;;;;6246105;23;19968;-67
2022/03/15 18:53:12;;;;;;;;;;;12.10;99.90;;;;;;6246265;23;20224;-68
2022/03/15 18:55:39;;;;;;;;;;;12.20;99.90;;;;;;6246047;23;19911;-68
2022/03/15 18:58:05;;;;;;;;;;;12.20;99.90;;;;;;6218509;23;19998;-62
2022/03/15 19:00:31;;;;;;;;;;;12.20;99.90;;;;;;6245688;23;19924;-67
2022/03/15 19:02:58;;;;;;;;;;;12.10;99.90;;;;;;6245704;23;19910;-67
2022/03/15 19:05:24;;;;;;;;;;;12.10;99.90;;;;;;6245532;23;19922;-68
2022/03/15 19:07:51;;;;;;;;;;;12.10;99.90;;;;;;6244804;23;20208;-64
2022/03/15 19:10:20;;;;;;;;;;;12.10;99.90;;;;;;6244319;23;19994;-69
2022/03/15 19:12:48;;;;;;;;;;;12.00;99.90;;;;;;6245522;23;19911;-70
2022/03/15 19:15:17;;;;;;;;;;;12.00;99.90;;;;;;6246032;23;19911;-69
2022/03/15 19:17:45;;;;;;;;;;;12.00;99.90;;;;;;6246127;23;19975;-70
2022/03/15 19:20:12;;;;;;;;;;;11.90;99.90;;;;;;6247067;23;20174;-71
2022/03/15 19:22:42;;;;;;;;;;;12.00;99.90;;;;;;6245837;23;19973;-69
2022/03/15 19:25:09;;;;;;;;;;;11.90;99.90;;;;;;6246254;23;19908;-70
2022/03/15 19:27:35;;;;;;;;;;;12.00;99.90;;;;;;6245821;23;20267;-70
2022/03/15 19:30:01;;;;;;;;;;;11.90;99.90;;;;;;6246189;23;19986;-70
2022/03/15 19:32:27;;;;;;;;;;;11.90;99.90;;;;;;6245865;23;19903;-71
2022/03/15 19:34:53;;;;;;;;;;;11.80;99.90;;;;;;6246284;23;19932;-69
2022/03/15 19:37:19;;;;;;;;;;;11.80;99.90;;;;;;6245744;23;19907;-70
2022/03/15 19:39:45;;;;;;;;;;;11.80;99.90;;;;;;6245801;23;19904;-72
2022/03/15 19:42:11;;;;;;;;;;;11.90;99.90;;;;;;6219075;23;19939;-70
2022/03/15 19:44:40;;;;;;;;;;;11.90;99.90;;;;;;6246381;23;19904;-69
2022/03/15 19:47:07;;;;;;;;;;;11.90;99.90;;;;;;6245849;23;20312;-65
2022/03/15 19:49:34;;;;;;;;;;;11.80;99.90;;;;;;6245265;23;19966;-69
2022/03/15 19:52:00;;;;;;;;;;;11.90;99.90;;;;;;6218068;23;19930;-68
2022/03/15 19:54:25;;;;;;;;;;;11.80;99.90;;;;;;6244875;23;20209;-69
2022/03/15 19:56:51;;;;;;;;;;;11.80;99.90;;;;;;6245018;23;20337;-69
2022/03/15 19:59:20;;;;;;;;;;;11.80;99.90;;;;;;6217254;23;19986;-69
2022/03/15 20:01:46;;;;;;;;;;;11.80;99.90;;;;;;6244621;23;19910;-71
2022/03/15 20:04:19;;;;;;;;;;;11.80;99.90;;;;;;6218049;23;20232;-70
2022/03/15 20:06:46;;;;;;;;;;;11.80;99.90;;;;;;6217904;23;19919;-70
2022/03/15 20:09:12;;;;;;;;;;;11.70;99.90;;;;;;6244962;23;19982;-67
2022/03/15 20:11:39;;;;;;;;;;;11.70;99.90;;;;;;6244258;23;19907;-71
2022/03/15 20:14:10;;;;;;;;;;;11.60;99.90;;;;;;6244432;23;20224;-69
2022/03/15 20:16:38;;;;;;;;;;;11.60;99.90;;;;;;6244901;23;19911;-70
2022/03/15 20:19:04;;;;;;;;;;;11.60;99.90;;;;;;6244295;23;19910;-70
2022/03/15 20:21:30;;;;;;;;;;;11.70;99.90;;;;;;6244329;23;19935;-69
2022/03/15 20:23:58;;;;;;;;;;;11.70;99.90;;;;;;6244509;23;19915;-70
2022/03/15 20:26:24;;;;;;;;;;;11.70;99.90;;;;;;6244150;23;19911;-69
2022/03/15 20:28:50;;;;;;;;;;;11.70;99.90;;;;;;6244534;23;19957;-68
2022/03/15 20:31:21;;;;;;;;;;;11.60;99.90;;;;;;6244066;23;19978;-69
2022/03/15 20:33:49;;;;;;;;;;;11.60;99.90;;;;;;6244325;23;19910;-70
2022/03/15 20:36:18;;;;;;;;;;;11.60;99.90;;;;;;6244134;23;19999;-69
2022/03/15 20:38:47;;;;;;;;;;;11.60;99.90;;;;;;6244344;23;19977;-68
2022/03/15 20:41:21;;;;;;;;;;;11.50;99.90;;;;;;6217630;23;19914;-69
2022/03/15 20:46:37;;;;;;;;;;;11.50;99.90;;;;;;6244457;23;19919;-69
2022/03/15 20:49:06;;;;;;;;;;;11.50;99.90;;;;;;6244541;23;20228;-69
2022/03/15 20:51:32;;;;;;;;;;;11.50;99.90;;;;;;6244231;23;19911;-70
2022/03/15 20:53:58;;;;;;;;;;;11.50;99.90;;;;;;6244844;23;20146;-69
2022/03/15 20:56:25;;;;;;;;;;;11.40;99.90;;;;;;6244053;23;20378;-69
2022/03/15 20:58:52;;;;;;;;;;;11.40;99.90;;;;;;6244755;23;19915;-69
2022/03/15 21:01:19;;;;;;;;;;;11.50;99.90;;;;;;6244045;23;19995;-69
2022/03/15 21:03:48;;;;;;;;;;;11.40;99.90;;;;;;6243974;23;20154;-70
2022/03/15 21:06:18;;;;;;;;;;;11.40;99.90;;;;;;6243625;23;20248;-71
2022/03/15 21:08:45;;;;;;;;;;;11.40;99.90;;;;;;6216401;23;20034;-69
2022/03/15 21:11:11;;;;;;;;;;;11.40;99.90;;;;;;6244766;23;19903;-69
2022/03/15 21:13:39;;;;;;;;;;;11.40;99.90;;;;;;6246136;23;19903;-70
2022/03/15 21:16:07;;;;;;;;;;;11.40;99.90;;;;;;6245655;23;19911;-70
2022/03/15 21:18:38;;;;;;;;;;;11.30;99.90;;;;;;6245699;23;19965;-70
2022/03/15 21:21:04;;;;;;;;;;;11.30;99.90;;;;;;6245660;23;19911;-70